Time;durP1;ratioP1;P1;durP2;ratioP2;P2;SDS_P1;SDS_P2;PMS_P1;PMS_P2;Temp;Humidity;BMP_temperature;BMP_pressure;BME280_temperature;BME280_humidity;BME280_pressure;Samples;Min_cycle;Max_cycle;Signal;HPM_P1;HPM_P2
2023/11/12 00:00:29;;;;;;;14.23;9.50;;;;;;;;;;4975533;28;20130;-75
2023/11/12 00:02:55;;;;;;;13.75;9.35;;;;;;;;;;4958844;28;20126;-75
2023/11/12 00:05:20;;;;;;;14.02;8.52;;;;;;;;;;4958696;28;20466;-74
2023/11/12 00:07:46;;;;;;;13.80;8.55;;;;;;;;;;4975575;28;20118;-75
2023/11/12 00:10:12;;;;;;;17.00;9.50;;;;;;;;;;4959141;28;20038;-75
2023/11/12 00:12:39;;;;;;;14.15;8.30;;;;;;;;;;4958984;28;20814;-75
2023/11/12 00:15:05;;;;;;;13.88;8.77;;;;;;;;;;4958638;28;20039;-76
2023/11/12 00:17:31;;;;;;;14.48;9.20;;;;;;;;;;4958561;28;20385;-75
2023/11/12 00:19:57;;;;;;;13.68;9.07;;;;;;;;;;4958770;28;20039;-75
2023/11/12 00:22:23;;;;;;;14.10;9.10;;;;;;;;;;4959550;28;20366;-75
2023/11/12 00:24:49;;;;;;;16.30;9.48;;;;;;;;;;4961190;28;20114;-73
2023/11/12 00:27:14;;;;;;;15.48;9.13;;;;;;;;;;4962301;28;20045;-77
2023/11/12 00:29:40;;;;;;;16.00;9.60;;;;;;;;;;4944060;28;20082;-77
2023/11/12 00:32:07;;;;;;;15.00;9.75;;;;;;;;;;4958046;28;20500;-76
2023/11/12 00:34:34;;;;;;;13.50;9.20;;;;;;;;;;4974087;28;20043;-79
2023/11/12 00:37:00;;;;;;;15.75;9.00;;;;;;;;;;4958751;28;20035;-78
2023/11/12 00:39:26;;;;;;;15.80;9.40;;;;;;;;;;4958738;28;20038;-80
2023/11/12 00:41:55;;;;;;;14.95;9.70;;;;;;;;;;4957588;28;20031;-80
2023/11/12 00:44:23;;;;;;;16.60;9.95;;;;;;;;;;4959330;28;20057;-79
2023/11/12 00:46:48;;;;;;;17.40;10.00;;;;;;;;;;4960263;28;20120;-78
2023/11/12 00:49:15;;;;;;;17.13;10.38;;;;;;;;;;4974420;28;20038;-79
2023/11/12 00:51:40;;;;;;;16.75;10.18;;;;;;;;;;4957803;28;20060;-79
2023/11/12 00:54:06;;;;;;;18.15;10.30;;;;;;;;;;4957883;28;20492;-78
2023/11/12 00:56:32;;;;;;;19.90;10.88;;;;;;;;;;4957241;28;20035;-77
2023/11/12 00:58:58;;;;;;;16.35;11.10;;;;;;;;;;4957388;28;20034;-77
2023/11/12 01:01:23;;;;;;;15.40;10.10;;;;;;;;;;4941474;28;20057;-76
2023/11/12 01:03:49;;;;;;;19.52;11.05;;;;;;;;;;4958445;28;20491;-77
2023/11/12 01:06:15;;;;;;;18.73;10.65;;;;;;;;;;4958400;28;20037;-76
2023/11/12 01:08:40;;;;;;;17.30;10.73;;;;;;;;;;4957301;28;20266;-77
2023/11/12 01:11:06;;;;;;;17.52;11.13;;;;;;;;;;4957117;28;20057;-77
2023/11/12 01:13:33;;;;;;;17.17;10.95;;;;;;;;;;4957203;28;20042;-76
2023/11/12 01:16:00;;;;;;;19.80;10.45;;;;;;;;;;4941235;28;20039;-76
2023/11/12 01:18:26;;;;;;;22.88;11.77;;;;;;;;;;4957084;28;20042;-78
2023/11/12 01:20:52;;;;;;;17.65;10.68;;;;;;;;;;4957174;28;20388;-73
2023/11/12 01:23:19;;;;;;;18.83;11.20;;;;;;;;;;4958468;28;20054;-78
2023/11/12 01:25:45;;;;;;;17.83;11.25;;;;;;;;;;4974110;28;20039;-77
2023/11/12 01:28:11;;;;;;;18.23;11.98;;;;;;;;;;4957069;28;20039;-77
2023/11/12 01:30:40;;;;;;;22.52;11.52;;;;;;;;;;4941123;28;20203;-78
2023/11/12 01:33:06;;;;;;;19.23;11.55;;;;;;;;;;4972893;28;20035;-77
2023/11/12 01:35:32;;;;;;;18.58;11.13;;;;;;;;;;4940686;28;20031;-77
2023/11/12 01:37:58;;;;;;;19.35;11.88;;;;;;;;;;4956924;28;20049;-77
2023/11/12 01:40:25;;;;;;;20.90;13.13;;;;;;;;;;4956531;28;20385;-76
2023/11/12 01:42:51;;;;;;;23.40;12.10;;;;;;;;;;4958002;28;20053;-76
2023/11/12 01:45:16;;;;;;;20.90;13.05;;;;;;;;;;4957080;28;20031;-77
2023/11/12 01:47:44;;;;;;;25.90;12.90;;;;;;;;;;4956307;28;20610;-76
2023/11/12 01:50:12;;;;;;;19.35;12.23;;;;;;;;;;4940304;28;20034;-79
2023/11/12 01:52:39;;;;;;;19.75;12.15;;;;;;;;;;4972334;28;20061;-79
2023/11/12 01:55:06;;;;;;;20.60;12.55;;;;;;;;;;4940686;28;20385;-79
2023/11/12 01:57:34;;;;;;;18.75;12.45;;;;;;;;;;4956597;28;20039;-76
2023/11/12 02:00:10;;;;;;;23.25;12.32;;;;;;;;;;4957013;28;20070;-77
2023/11/12 02:02:39;;;;;;;18.80;12.02;;;;;;;;;;4957582;28;20149;-78
2023/11/12 02:05:08;;;;;;;20.08;11.73;;;;;;;;;;4956705;28;20034;-79
2023/11/12 02:07:36;;;;;;;22.90;12.73;;;;;;;;;;4956290;28;20054;-77
2023/11/12 02:10:11;;;;;;;21.33;11.80;;;;;;;;;;4956439;28;20035;-79
2023/11/12 02:12:40;;;;;;;22.40;12.60;;;;;;;;;;4956414;28;20031;-78
2023/11/12 02:15:05;;;;;;;25.08;13.07;;;;;;;;;;4956133;28;20038;-78
2023/11/12 02:17:32;;;;;;;24.25;13.57;;;;;;;;;;4956503;28;20034;-78
2023/11/12 02:20:07;;;;;;;22.95;13.70;;;;;;;;;;4972783;28;20034;-77
2023/11/12 02:22:37;;;;;;;23.08;14.05;;;;;;;;;;4926893;28;20086;-77
2023/11/12 02:25:06;;;;;;;24.17;13.77;;;;;;;;;;4956020;28;20038;-80
2023/11/12 02:27:32;;;;;;;22.02;14.73;;;;;;;;;;4956313;28;20046;-80
2023/11/12 02:29:58;;;;;;;22.25;14.02;;;;;;;;;;4972341;28;20034;-79
2023/11/12 02:32:32;;;;;;;23.45;14.70;;;;;;;;;;4972224;28;20177;-80
2023/11/12 02:34:58;;;;;;;25.83;14.32;;;;;;;;;;4955874;28;20066;-80
2023/11/12 02:37:24;;;;;;;23.80;14.23;;;;;;;;;;4956534;28;20046;-81
2023/11/12 02:39:50;;;;;;;28.20;14.57;;;;;;;;;;4973501;28;20043;-80
2023/11/12 02:42:17;;;;;;;25.70;13.35;;;;;;;;;;4956515;28;20234;-79
2023/11/12 02:44:45;;;;;;;24.70;14.35;;;;;;;;;;4956326;28;20042;-80
2023/11/12 02:47:11;;;;;;;24.77;13.98;;;;;;;;;;4900637;29;20099;-79
2023/11/12 02:49:55;;;;;;;28.55;15.15;;;;;;;;;;4932444;29;20044;-80
2023/11/12 02:52:21;;;;;;;23.52;14.18;;;;;;;;;;4917485;29;20138;-79
2023/11/12 02:54:47;;;;;;;28.55;15.25;;;;;;;;;;4917024;29;20167;-80
2023/11/12 02:57:12;;;;;;;23.45;14.50;;;;;;;;;;4902003;29;20502;-80
2023/11/12 02:59:41;;;;;;;25.20;14.43;;;;;;;;;;4918299;29;20071;-79
2023/11/12 03:02:06;;;;;;;23.15;14.60;;;;;;;;;;4901374;29;20051;-79
2023/11/12 03:04:32;;;;;;;24.05;14.35;;;;;;;;;;4935123;29;20102;-80
2023/11/12 03:06:57;;;;;;;26.45;15.13;;;;;;;;;;4906083;29;20055;-75
2023/11/12 03:09:25;;;;;;;28.88;14.60;;;;;;;;;;4905688;29;20040;-77
2023/11/12 03:11:51;;;;;;;25.98;14.68;;;;;;;;;;4936742;29;20032;-78
2023/11/12 03:14:22;;;;;;;26.00;14.05;;;;;;;;;;4920296;29;20028;-78
2023/11/12 03:16:50;;;;;;;22.23;14.52;;;;;;;;;;4905475;29;20050;-76
2023/11/12 03:19:16;;;;;;;21.25;13.32;;;;;;;;;;4974340;28;20043;-76
2023/11/12 03:21:46;;;;;;;21.55;13.95;;;;;;;;;;4975427;28;20043;-77
2023/11/12 03:24:12;;;;;;;23.95;14.77;;;;;;;;;;4975212;28;20396;-77
2023/11/12 03:26:37;;;;;;;21.23;14.05;;;;;;;;;;4959106;28;20035;-76
2023/11/12 03:29:04;;;;;;;25.05;13.93;;;;;;;;;;4975287;28;20034;-76
2023/11/12 03:31:30;;;;;;;22.48;14.43;;;;;;;;;;4959126;28;20039;-76
2023/11/12 03:33:56;;;;;;;22.13;13.07;;;;;;;;;;4959811;28;20511;-75
2023/11/12 03:36:21;;;;;;;21.13;13.48;;;;;;;;;;4960987;28;20042;-76
2023/11/12 03:38:48;;;;;;;23.05;12.73;;;;;;;;;;4975365;28;20046;-77
2023/11/12 03:41:14;;;;;;;20.05;13.18;;;;;;;;;;4976332;28;20039;-76
2023/11/12 03:43:40;;;;;;;19.98;12.05;;;;;;;;;;4959270;28;20070;-76
2023/11/12 03:46:06;;;;;;;19.60;12.40;;;;;;;;;;4958022;28;20050;-76
2023/11/12 03:48:32;;;;;;;18.85;12.05;;;;;;;;;;4974853;28;20041;-75
2023/11/12 03:50:58;;;;;;;20.40;12.35;;;;;;;;;;4959141;28;20072;-76
2023/11/12 03:53:24;;;;;;;19.58;12.10;;;;;;;;;;4975855;28;20038;-77
2023/11/12 03:55:49;;;;;;;18.42;11.55;;;;;;;;;;4959673;28;20307;-77
2023/11/12 03:58:15;;;;;;;18.48;11.80;;;;;;;;;;4974831;28;20089;-77
2023/11/12 04:00:41;;;;;;;15.50;10.57;;;;;;;;;;4958876;28;20373;-76
2023/11/12 04:03:07;;;;;;;18.45;11.57;;;;;;;;;;4974828;28;20053;-75
2023/11/12 04:05:33;;;;;;;17.02;10.95;;;;;;;;;;4954091;29;20138;-74
2023/11/12 04:07:59;;;;;;;17.85;10.63;;;;;;;;;;4954681;29;20445;-75
2023/11/12 04:10:25;;;;;;;15.75;11.02;;;;;;;;;;4922470;29;20071;-74
2023/11/12 04:12:51;;;;;;;15.85;10.13;;;;;;;;;;4923838;29;20155;-78
2023/11/12 04:15:16;;;;;;;15.40;9.65;;;;;;;;;;4922632;28;20557;-78
2023/11/12 04:17:44;;;;;;;14.82;9.50;;;;;;;;;;4937492;29;20039;-77
2023/11/12 04:20:10;;;;;;;13.57;9.13;;;;;;;;;;4922227;29;20079;-78
2023/11/12 04:22:37;;;;;;;15.23;9.35;;;;;;;;;;4922579;29;20584;-77
2023/11/12 04:25:04;;;;;;;16.23;10.13;;;;;;;;;;4908866;29;20052;-74
2023/11/12 04:27:30;;;;;;;13.70;8.98;;;;;;;;;;4919407;29;20147;-77
2023/11/12 04:29:56;;;;;;;16.83;9.88;;;;;;;;;;4919834;29;20134;-77
2023/11/12 04:32:23;;;;;;;15.68;10.73;;;;;;;;;;4920056;29;20098;-77
2023/11/12 04:34:50;;;;;;;17.10;11.13;;;;;;;;;;4934386;29;20079;-76
2023/11/12 04:37:16;;;;;;;15.80;10.57;;;;;;;;;;4939117;28;20043;-75
2023/11/12 04:39:43;;;;;;;15.73;10.48;;;;;;;;;;4948757;28;20027;-79
2023/11/12 04:42:09;;;;;;;15.45;10.23;;;;;;;;;;4947808;28;20074;-78
2023/11/12 04:44:34;;;;;;;15.98;11.68;;;;;;;;;;4947083;28;20494;-78
2023/11/12 04:47:01;;;;;;;17.10;11.32;;;;;;;;;;4948955;28;20042;-78
2023/11/12 04:49:26;;;;;;;18.55;11.68;;;;;;;;;;4972719;28;20035;-76
2023/11/12 04:51:53;;;;;;;17.25;10.15;;;;;;;;;;4947469;28;20069;-77
2023/11/12 04:54:20;;;;;;;16.88;10.30;;;;;;;;;;4948524;28;20030;-75
2023/11/12 04:56:46;;;;;;;16.65;10.95;;;;;;;;;;4946782;28;20122;-77
2023/11/12 04:59:14;;;;;;;16.77;10.27;;;;;;;;;;4954531;28;20131;-78
2023/11/12 05:01:40;;;;;;;17.42;10.98;;;;;;;;;;4954588;29;20417;-79
2023/11/12 05:04:06;;;;;;;17.00;10.98;;;;;;;;;;4938447;28;20039;-79
2023/11/12 05:06:32;;;;;;;18.70;11.38;;;;;;;;;;4939001;29;20086;-74
2023/11/12 05:08:57;;;;;;;20.92;12.38;;;;;;;;;;4971413;28;20433;-74
2023/11/12 05:11:24;;;;;;;17.85;11.23;;;;;;;;;;4970341;28;20390;-77
2023/11/12 05:13:50;;;;;;;15.85;10.68;;;;;;;;;;4959800;28;20339;-77
2023/11/12 05:16:17;;;;;;;17.83;10.90;;;;;;;;;;4963112;28;20358;-77
2023/11/12 05:18:43;;;;;;;19.67;11.10;;;;;;;;;;4927194;29;20039;-78
2023/11/12 05:21:10;;;;;;;16.35;10.35;;;;;;;;;;4927950;29;20130;-78
2023/11/12 05:23:36;;;;;;;14.13;10.10;;;;;;;;;;4924145;29;21054;-72
2023/11/12 05:26:05;;;;;;;14.52;10.23;;;;;;;;;;4912210;29;20047;-76
2023/11/12 05:28:31;;;;;;;15.18;9.82;;;;;;;;;;4928676;29;20047;-77
2023/11/12 05:30:56;;;;;;;16.73;10.05;;;;;;;;;;4942443;28;20474;-78
2023/11/12 05:33:22;;;;;;;16.50;10.23;;;;;;;;;;4932156;29;20038;-79
2023/11/12 05:35:48;;;;;;;13.07;10.63;;;;;;;;;;4897694;29;20070;-75
2023/11/12 05:38:17;;;;;;;14.55;9.95;;;;;;;;;;4902070;29;20032;-78
2023/11/12 05:40:43;;;;;;;15.52;9.95;;;;;;;;;;4892043;29;20144;-78
2023/11/12 05:43:10;;;;;;;13.50;9.20;;;;;;;;;;4918384;29;20531;-78
2023/11/12 05:45:36;;;;;;;15.55;9.30;;;;;;;;;;4912002;29;20039;-74
2023/11/12 05:48:02;;;;;;;15.18;9.90;;;;;;;;;;4895814;29;20042;-76
2023/11/12 05:50:28;;;;;;;15.50;9.77;;;;;;;;;;4907548;29;20040;-76
2023/11/12 05:52:53;;;;;;;16.02;9.75;;;;;;;;;;4910336;29;20050;-76
2023/11/12 05:55:19;;;;;;;15.27;9.30;;;;;;;;;;4914107;28;20343;-78
2023/11/12 05:57:44;;;;;;;16.38;9.50;;;;;;;;;;4945257;28;20389;-81
2023/11/12 06:00:11;;;;;;;17.25;8.73;;;;;;;;;;4947074;28;20439;-78
2023/11/12 06:02:39;;;;;;;15.57;9.23;;;;;;;;;;4964954;28;20051;-82
2023/11/12 06:05:05;;;;;;;14.18;9.45;;;;;;;;;;4955167;28;20411;-79
2023/11/12 06:07:34;;;;;;;12.70;9.18;;;;;;;;;;4945696;28;20174;-74
2023/11/12 06:10:00;;;;;;;14.95;9.35;;;;;;;;;;4947369;28;20043;-75
2023/11/12 06:12:26;;;;;;;13.55;8.43;;;;;;;;;;4958092;28;20049;-75
2023/11/12 06:14:51;;;;;;;15.30;8.93;;;;;;;;;;4972111;28;20129;-77
2023/11/12 06:17:17;;;;;;;14.75;9.98;;;;;;;;;;4945532;28;20055;-76
2023/11/12 06:19:43;;;;;;;14.10;9.50;;;;;;;;;;4970611;28;20426;-75
2023/11/12 06:22:09;;;;;;;13.15;9.35;;;;;;;;;;4953725;28;20117;-73
2023/11/12 06:24:34;;;;;;;13.90;9.18;;;;;;;;;;4947667;28;20030;-79
2023/11/12 06:27:00;;;;;;;11.60;9.32;;;;;;;;;;4910643;29;20046;-78
2023/11/12 06:29:31;;;;;;;15.43;10.48;;;;;;;;;;4925436;29;20401;-82
2023/11/12 06:31:57;;;;;;;14.00;9.23;;;;;;;;;;4926155;29;20035;-79
2023/11/12 06:34:23;;;;;;;13.05;9.27;;;;;;;;;;4926142;29;20111;-79
2023/11/12 06:36:49;;;;;;;13.00;8.65;;;;;;;;;;4924922;29;20549;-78
2023/11/12 06:39:15;;;;;;;14.55;9.13;;;;;;;;;;4909973;29;20462;-81
2023/11/12 06:41:41;;;;;;;14.23;9.60;;;;;;;;;;4911651;29;20047;-80
2023/11/12 06:44:06;;;;;;;14.45;10.13;;;;;;;;;;4910525;29;20036;-83
2023/11/12 06:46:32;;;;;;;15.45;8.68;;;;;;;;;;4913502;29;20155;-82
2023/11/12 06:48:58;;;;;;;14.82;10.02;;;;;;;;;;4911406;29;20043;-82
2023/11/12 06:51:24;;;;;;;11.98;8.80;;;;;;;;;;4927084;29;20055;-80
2023/11/12 06:53:50;;;;;;;16.27;8.73;;;;;;;;;;4941269;29;20032;-83
2023/11/12 06:56:16;;;;;;;16.90;8.65;;;;;;;;;;4926046;29;20062;-83
2023/11/12 06:58:42;;;;;;;18.75;9.32;;;;;;;;;;4927671;28;20058;-82
2023/11/12 07:01:07;;;;;;;12.13;7.97;;;;;;;;;;4963339;28;20422;-81
2023/11/12 07:03:34;;;;;;;14.43;8.55;;;;;;;;;;4955331;28;20453;-77
2023/11/12 07:06:00;;;;;;;13.65;9.02;;;;;;;;;;4960579;28;20039;-73
2023/11/12 07:08:27;;;;;;;14.88;9.52;;;;;;;;;;4946350;28;20049;-72
2023/11/12 07:10:53;;;;;;;17.10;10.30;;;;;;;;;;4968982;28;20597;-71
2023/11/12 07:13:19;;;;;;;20.92;10.63;;;;;;;;;;4953186;28;20057;-74
2023/11/12 07:15:45;;;;;;;19.20;11.60;;;;;;;;;;4937199;29;20465;-77
2023/11/12 07:18:11;;;;;;;17.55;12.00;;;;;;;;;;4954076;28;20057;-68
2023/11/12 07:20:37;;;;;;;18.83;13.30;;;;;;;;;;4957775;28;20521;-81
2023/11/12 07:23:02;;;;;;;20.50;12.63;;;;;;;;;;4952779;29;20055;-78
2023/11/12 07:25:29;;;;;;;20.55;12.55;;;;;;;;;;4936132;29;20437;-78
2023/11/12 07:27:55;;;;;;;21.00;13.18;;;;;;;;;;4952281;29;20146;-79
2023/11/12 07:30:21;;;;;;;22.48;13.73;;;;;;;;;;4951510;29;20565;-77
2023/11/12 07:32:46;;;;;;;25.13;13.57;;;;;;;;;;4919756;29;20470;-77
2023/11/12 07:35:15;;;;;;;23.23;13.63;;;;;;;;;;4919902;29;20085;-72
2023/11/12 07:37:41;;;;;;;26.48;14.55;;;;;;;;;;4920870;29;20043;-75
2023/11/12 07:40:11;;;;;;;29.42;16.95;;;;;;;;;;4921040;29;20035;-82
2023/11/12 07:42:38;;;;;;;18.67;12.37;;;;;;;;;;4936366;29;20118;-81
2023/11/12 07:45:08;;;;;;;29.00;15.23;;;;;;;;;;4920212;29;20045;-78
2023/11/12 07:47:38;;;;;;;27.38;17.35;;;;;;;;;;4951438;29;20482;-80
2023/11/12 07:50:04;;;;;;;21.70;14.45;;;;;;;;;;4919451;28;20134;-82
2023/11/12 07:52:31;;;;;;;21.60;14.70;;;;;;;;;;4922946;29;20063;-79
2023/11/12 07:54:56;;;;;;;23.70;14.15;;;;;;;;;;4939383;29;20102;-81
2023/11/12 07:57:22;;;;;;;26.92;15.45;;;;;;;;;;4956022;29;20039;-81
2023/11/12 07:59:48;;;;;;;22.40;16.52;;;;;;;;;;4957336;28;20059;-82
2023/11/12 08:02:14;;;;;;;26.75;15.43;;;;;;;;;;4941829;28;20042;-78
2023/11/12 08:04:40;;;;;;;24.73;15.00;;;;;;;;;;4948171;28;20525;-79
2023/11/12 08:07:06;;;;;;;22.25;14.13;;;;;;;;;;4914760;29;20031;-81
2023/11/12 08:09:32;;;;;;;33.88;17.02;;;;;;;;;;4906797;29;20079;-79
2023/11/12 08:11:58;;;;;;;23.17;14.30;;;;;;;;;;4869665;29;20048;-80
2023/11/12 08:14:25;;;;;;;20.88;12.27;;;;;;;;;;4870151;29;20200;-74
2023/11/12 08:16:50;;;;;;;17.92;11.10;;;;;;;;;;4869968;29;20155;-80
2023/11/12 08:19:16;;;;;;;22.92;13.75;;;;;;;;;;4869933;29;20043;-79
2023/11/12 08:21:41;;;;;;;19.80;12.20;;;;;;;;;;4869711;29;20044;-79
2023/11/12 08:24:07;;;;;;;16.60;10.73;;;;;;;;;;4885423;29;20112;-77
2023/11/12 08:26:38;;;;;;;16.30;10.18;;;;;;;;;;4850734;29;20056;-76
2023/11/12 08:29:06;;;;;;;16.58;9.93;;;;;;;;;;4877193;29;20031;-78
2023/11/12 08:31:34;;;;;;;18.63;10.98;;;;;;;;;;4903536;29;20040;-75
2023/11/12 08:34:00;;;;;;;18.00;11.73;;;;;;;;;;4906817;29;20122;-75
2023/11/12 08:36:26;;;;;;;17.05;10.73;;;;;;;;;;4906151;29;20139;-76
2023/11/12 08:38:51;;;;;;;15.20;10.48;;;;;;;;;;4916060;28;20486;-75
2023/11/12 08:41:19;;;;;;;16.17;11.00;;;;;;;;;;4945509;28;20096;-74
2023/11/12 08:43:45;;;;;;;16.40;10.93;;;;;;;;;;4969768;28;20047;-72
2023/11/12 08:46:13;;;;;;;17.10;10.50;;;;;;;;;;4953768;28;20094;-80
2023/11/12 08:48:42;;;;;;;21.00;12.75;;;;;;;;;;4954232;28;20035;-80
2023/11/12 08:51:09;;;;;;;20.20;13.35;;;;;;;;;;4938215;28;20129;-76
2023/11/12 08:53:39;;;;;;;18.67;12.18;;;;;;;;;;4939693;28;20035;-78
2023/11/12 08:56:05;;;;;;;17.73;11.40;;;;;;;;;;4957009;28;20045;-76
2023/11/12 08:58:31;;;;;;;21.85;11.80;;;;;;;;;;4956573;28;20496;-79
2023/11/12 09:00:57;;;;;;;16.13;9.88;;;;;;;;;;4919306;29;20043;-76
2023/11/12 09:03:23;;;;;;;12.73;9.27;;;;;;;;;;4902314;29;20611;-79
2023/11/12 09:05:49;;;;;;;16.13;10.73;;;;;;;;;;4921012;29;20154;-82
2023/11/12 09:08:15;;;;;;;14.57;9.75;;;;;;;;;;4938336;29;20169;-71
2023/11/12 09:10:41;;;;;;;14.25;10.07;;;;;;;;;;4920093;29;20058;-78
2023/11/12 09:13:07;;;;;;;14.85;10.88;;;;;;;;;;4900584;29;20138;-78
2023/11/12 09:15:33;;;;;;;14.90;10.23;;;;;;;;;;4919393;29;20507;-84
2023/11/12 09:18:00;;;;;;;14.65;9.82;;;;;;;;;;4919121;29;20096;-77
2023/11/12 09:20:25;;;;;;;13.02;9.38;;;;;;;;;;4917869;29;20075;-81
2023/11/12 09:22:52;;;;;;;12.30;9.40;;;;;;;;;;4916655;29;20595;-79
2023/11/12 09:25:17;;;;;;;12.80;9.40;;;;;;;;;;4900333;29;20061;-80
2023/11/12 09:27:45;;;;;;;15.10;10.77;;;;;;;;;;4917300;29;20043;-80
2023/11/12 09:30:11;;;;;;;15.50;10.25;;;;;;;;;;4919686;29;20035;-78
2023/11/12 09:32:37;;;;;;;12.27;7.80;;;;;;;;;;4947732;28;20061;-78
2023/11/12 09:35:08;;;;;;;14.35;9.23;;;;;;;;;;4958900;28;20085;-83
2023/11/12 09:37:34;;;;;;;14.65;10.13;;;;;;;;;;4957423;28;20049;-78
2023/11/12 09:40:00;;;;;;;11.98;9.00;;;;;;;;;;4954711;28;20031;-76
2023/11/12 09:42:27;;;;;;;11.32;8.80;;;;;;;;;;4953216;28;20050;-75
2023/11/12 09:44:56;;;;;;;11.60;8.93;;;;;;;;;;4970105;28;20039;-81
2023/11/12 09:47:33;;;;;;;11.60;8.43;;;;;;;;;;4971924;28;20504;-83
2023/11/12 09:50:00;;;;;;;14.55;9.15;;;;;;;;;;4955982;28;20591;-76
2023/11/12 09:52:25;;;;;;;11.85;8.73;;;;;;;;;;4971523;28;20054;-76
2023/11/12 09:54:52;;;;;;;12.73;8.88;;;;;;;;;;4954789;28;20039;-79
2023/11/12 09:57:18;;;;;;;10.88;8.13;;;;;;;;;;4971714;28;20142;-82
2023/11/12 09:59:44;;;;;;;11.88;8.40;;;;;;;;;;4954514;28;20031;-75
2023/11/12 10:02:10;;;;;;;16.02;11.05;;;;;;;;;;4954601;28;20053;-83
2023/11/12 10:04:36;;;;;;;17.75;12.60;;;;;;;;;;4956693;28;20422;-83
2023/11/12 10:07:03;;;;;;;22.52;14.10;;;;;;;;;;4954251;28;20077;-82
2023/11/12 10:09:30;;;;;;;22.38;15.95;;;;;;;;;;4943919;28;20031;-79
2023/11/12 10:12:02;;;;;;;17.95;13.48;;;;;;;;;;4960865;28;20045;-79
2023/11/12 10:14:27;;;;;;;25.83;15.52;;;;;;;;;;4983831;28;20030;-78
2023/11/12 10:17:04;;;;;;;22.42;15.65;;;;;;;;;;4966902;28;20058;-77
2023/11/12 10:19:29;;;;;;;21.27;14.32;;;;;;;;;;4942641;28;20027;-78
2023/11/12 10:21:56;;;;;;;21.70;12.88;;;;;;;;;;4944004;28;20801;-82
2023/11/12 10:24:22;;;;;;;18.35;12.70;;;;;;;;;;4944750;28;20043;-75
2023/11/12 10:26:48;;;;;;;19.48;12.90;;;;;;;;;;4943227;28;20035;-79
2023/11/12 10:29:21;;;;;;;23.33;16.20;;;;;;;;;;4930166;28;20058;-78
2023/11/12 10:31:48;;;;;;;25.10;17.08;;;;;;;;;;4969688;28;20038;-75
2023/11/12 10:34:16;;;;;;;26.23;17.42;;;;;;;;;;4949875;28;20055;-76
2023/11/12 10:37:00;;;;;;;21.85;15.30;;;;;;;;;;4929594;29;20107;-74
2023/11/12 10:39:33;;;;;;;24.80;16.92;;;;;;;;;;4915417;29;20545;-75
2023/11/12 10:42:00;;;;;;;18.77;13.50;;;;;;;;;;4930994;29;20082;-78
2023/11/12 10:44:26;;;;;;;16.92;11.75;;;;;;;;;;4900249;29;20509;-79
2023/11/12 10:46:53;;;;;;;19.20;14.18;;;;;;;;;;4932692;29;20470;-81
2023/11/12 10:49:23;;;;;;;16.42;12.00;;;;;;;;;;4918812;29;20107;-78
2023/11/12 10:51:50;;;;;;;13.68;11.20;;;;;;;;;;4936680;29;20078;-79
2023/11/12 10:54:16;;;;;;;16.90;13.00;;;;;;;;;;4932965;29;20480;-79
2023/11/12 10:56:43;;;;;;;11.98;9.05;;;;;;;;;;4932386;29;20055;-83
2023/11/12 10:59:11;;;;;;;13.68;9.75;;;;;;;;;;4930897;29;20107;-72
2023/11/12 11:01:39;;;;;;;9.77;7.60;;;;;;;;;;4900737;29;20035;-79
2023/11/12 11:04:06;;;;;;;15.00;11.38;;;;;;;;;;4915691;29;20044;-81
2023/11/12 11:06:32;;;;;;;15.13;11.68;;;;;;;;;;4937865;29;20043;-79
2023/11/12 11:08:58;;;;;;;13.18;10.45;;;;;;;;;;4953336;29;20122;-77
2023/11/12 11:11:24;;;;;;;11.75;8.82;;;;;;;;;;4936523;29;20131;-78
2023/11/12 11:13:49;;;;;;;13.50;9.48;;;;;;;;;;4921085;29;20450;-76
2023/11/12 11:16:41;;;;;;;10.02;7.68;;;;;;;;;;4936766;29;20039;-76
2023/11/12 11:19:07;;;;;;;9.30;6.97;;;;;;;;;;4951987;29;20079;-80
2023/11/12 11:21:33;;;;;;;8.02;6.57;;;;;;;;;;4919848;29;20183;-75
2023/11/12 11:23:59;;;;;;;9.98;7.60;;;;;;;;;;4935331;29;20077;-82
2023/11/12 11:26:27;;;;;;;9.85;7.82;;;;;;;;;;4941798;28;20054;-73
2023/11/12 11:29:13;;;;;;;7.03;6.07;;;;;;;;;;4951022;28;20054;-73
2023/11/12 11:31:42;;;;;;;9.55;7.00;;;;;;;;;;4949069;28;20055;-77
2023/11/12 11:34:13;;;;;;;8.15;5.53;;;;;;;;;;4914017;28;20035;-81
2023/11/12 11:36:40;;;;;;;10.32;5.22;;;;;;;;;;4931589;28;20039;-80
2023/11/12 11:39:15;;;;;;;8.98;5.43;;;;;;;;;;4928583;29;20109;-77
2023/11/12 11:41:50;;;;;;;7.18;5.72;;;;;;;;;;4923083;29;20054;-75
2023/11/12 11:44:38;;;;;;;7.40;5.78;;;;;;;;;;4949052;28;20031;-80
2023/11/12 11:47:27;;;;;;;6.00;5.18;;;;;;;;;;4934362;28;20118;-80
2023/11/12 11:50:10;;;;;;;10.10;5.40;;;;;;;;;;4912476;29;20050;-81
2023/11/12 11:52:41;;;;;;;5.32;4.72;;;;;;;;;;4909379;29;20055;-82
2023/11/12 11:55:10;;;;;;;7.32;5.45;;;;;;;;;;4901974;29;20102;-78
2023/11/12 11:57:50;;;;;;;8.60;5.75;;;;;;;;;;4890226;29;20039;-81
2023/11/12 12:00:17;;;;;;;8.00;6.07;;;;;;;;;;4887807;29;20055;-76
2023/11/12 12:02:44;;;;;;;9.57;6.43;;;;;;;;;;4914406;28;20896;-79
2023/11/12 12:05:10;;;;;;;10.77;7.63;;;;;;;;;;4929444;28;20093;-78
2023/11/12 12:07:39;;;;;;;10.52;7.25;;;;;;;;;;4920045;28;20034;-76
2023/11/12 12:10:07;;;;;;;10.88;8.48;;;;;;;;;;4937574;28;20046;-75
2023/11/12 12:12:40;;;;;;;11.18;8.57;;;;;;;;;;4930364;28;20042;-78
2023/11/12 12:15:08;;;;;;;11.35;8.95;;;;;;;;;;4927490;28;20055;-76
2023/11/12 12:17:41;;;;;;;5.25;4.75;;;;;;;;;;4915580;28;20030;-75
2023/11/12 12:20:07;;;;;;;6.38;5.65;;;;;;;;;;4915547;28;20050;-77
2023/11/12 12:22:33;;;;;;;10.55;7.00;;;;;;;;;;4903407;29;20140;-75
2023/11/12 12:24:59;;;;;;;23.42;7.78;;;;;;;;;;4877716;29;20052;-74
2023/11/12 12:27:25;;;;;;;10.88;8.23;;;;;;;;;;4893388;29;20100;-73
2023/11/12 12:29:54;;;;;;;8.98;7.38;;;;;;;;;;4877496;29;20040;-76
2023/11/12 12:32:20;;;;;;;9.13;6.72;;;;;;;;;;4891839;29;20048;-74
2023/11/12 12:34:56;;;;;;;9.45;7.63;;;;;;;;;;4900315;29;20047;-76
2023/11/12 12:37:25;;;;;;;10.20;7.28;;;;;;;;;;4877137;29;20063;-76
2023/11/12 12:40:01;;;;;;;11.55;7.65;;;;;;;;;;4895084;29;20059;-76
2023/11/12 12:42:28;;;;;;;9.48;7.30;;;;;;;;;;4894012;29;20039;-74
2023/11/12 12:44:54;;;;;;;10.23;7.57;;;;;;;;;;4877066;29;20062;-75
2023/11/12 12:47:33;;;;;;;9.93;7.80;;;;;;;;;;4912262;29;20039;-78
2023/11/12 12:50:15;;;;;;;11.65;8.07;;;;;;;;;;4929880;29;20134;-77
2023/11/12 12:52:44;;;;;;;13.85;9.35;;;;;;;;;;4891736;29;20056;-78
2023/11/12 12:55:15;;;;;;;12.23;9.00;;;;;;;;;;4937810;29;20075;-79
2023/11/12 12:57:42;;;;;;;14.52;9.30;;;;;;;;;;4925584;29;20043;-80
2023/11/12 13:00:11;;;;;;;11.27;9.00;;;;;;;;;;4923882;29;20051;-75
2023/11/12 13:02:43;;;;;;;13.05;8.93;;;;;;;;;;4909524;29;20075;-78
2023/11/12 13:05:14;;;;;;;11.15;8.95;;;;;;;;;;4943593;29;20584;-78
2023/11/12 13:07:41;;;;;;;16.98;9.00;;;;;;;;;;4926512;29;20505;-76
2023/11/12 13:10:14;;;;;;;31.88;9.65;;;;;;;;;;4902149;29;20037;-75
2023/11/12 13:12:42;;;;;;;13.07;9.20;;;;;;;;;;4841102;29;20047;-79
2023/11/12 13:15:10;;;;;;;11.40;8.68;;;;;;;;;;4886085;29;20041;-75
2023/11/12 13:17:38;;;;;;;16.27;10.68;;;;;;;;;;4898719;29;20055;-75
2023/11/12 13:20:07;;;;;;;12.55;9.90;;;;;;;;;;4862857;29;20037;-74
2023/11/12 13:22:33;;;;;;;13.35;10.40;;;;;;;;;;4862205;29;20059;-74
2023/11/12 13:24:59;;;;;;;16.35;11.27;;;;;;;;;;4908538;29;20225;-75
2023/11/12 13:27:30;;;;;;;19.63;10.75;;;;;;;;;;4884058;29;20201;-69
2023/11/12 13:29:56;;;;;;;14.40;9.80;;;;;;;;;;4884373;29;20463;-69
2023/11/12 13:32:22;;;;;;;16.15;10.48;;;;;;;;;;4899536;29;20043;-73
2023/11/12 13:34:48;;;;;;;12.70;9.88;;;;;;;;;;4891295;29;20075;-72
2023/11/12 13:37:15;;;;;;;16.95;11.50;;;;;;;;;;4883419;29;20395;-75
2023/11/12 13:39:41;;;;;;;16.60;11.82;;;;;;;;;;4887335;29;20119;-72
2023/11/12 13:42:07;;;;;;;18.05;11.52;;;;;;;;;;4910303;28;20047;-72
2023/11/12 13:44:36;;;;;;;18.73;11.93;;;;;;;;;;4942573;29;20438;-72
2023/11/12 13:47:03;;;;;;;16.05;11.48;;;;;;;;;;4913514;29;20104;-72
2023/11/12 13:49:29;;;;;;;18.33;11.63;;;;;;;;;;4902918;29;20075;-72
2023/11/12 13:51:55;;;;;;;19.38;11.63;;;;;;;;;;4918852;29;20062;-72
2023/11/12 13:54:24;;;;;;;22.52;12.40;;;;;;;;;;4902553;29;20051;-73
2023/11/12 13:56:50;;;;;;;25.55;12.15;;;;;;;;;;4935061;29;20489;-73
2023/11/12 13:59:20;;;;;;;18.52;11.98;;;;;;;;;;4919147;29;20051;-72
2023/11/12 14:01:46;;;;;;;48.80;12.80;;;;;;;;;;4934985;29;20042;-73
2023/11/12 14:04:13;;;;;;;17.45;12.40;;;;;;;;;;4919454;29;20150;-73
2023/11/12 14:06:40;;;;;;;24.40;12.68;;;;;;;;;;4936105;29;20077;-72
2023/11/12 14:09:08;;;;;;;20.88;13.15;;;;;;;;;;4912551;29;20052;-73
2023/11/12 14:11:36;;;;;;;17.75;11.25;;;;;;;;;;4893132;29;20527;-72
2023/11/12 14:14:05;;;;;;;16.88;11.38;;;;;;;;;;4862736;29;20526;-72
2023/11/12 14:16:38;;;;;;;18.05;12.02;;;;;;;;;;4895289;29;20524;-72
2023/11/12 14:19:10;;;;;;;15.55;11.38;;;;;;;;;;4912496;29;20087;-72
2023/11/12 14:21:42;;;;;;;16.40;11.25;;;;;;;;;;4912452;29;20591;-72
2023/11/12 14:24:11;;;;;;;26.65;11.98;;;;;;;;;;4897418;29;20051;-72